Madison, Nebraska
Current Conditions -  °F | °C
As of 11:56 AM on Monday 26 Jan 2015 (Local Time) from KOFK Reporting Station
Clear Clear  
Wind Chill: 54°   Ceiling: Unl
Heat Index: 54°   Visibility: 10mi
Dew Point: 36°   Wind: 17mph
Humidity: 51%   Direction: 310°NW
Pressure: 29.95"   Gusts: NA
Location:  41.83°N, 97.46°W
Report Text: KOFK 261756Z AUTO 31015KT 10SM CLR 12/02 A2995 RMK AO2 SLP151 T01220022 10122 20017 51022
Loading
Personal Weather Stations






























Interactive Weather Map New forecast layout! Learn more

10-Day Weather Forecast

Advertisements
Track Severe Weather on mobile